Time;durP1;ratioP1;P1;durP2;ratioP2;P2;SDS_P1;SDS_P2;PMS_P1;PMS_P2;Temp;Humidity;BMP_temperature;BMP_pressure;BME280_temperature;BME280_humidity;BME280_pressure;Samples;Min_cycle;Max_cycle;Signal;HPM_P1;HPM_P2
2022/10/19 00:01:07;;;;;;;1.90;1.13;;;;;;;22.79;40.05;100651.94;4197722;28;20040;-61
2022/10/19 00:03:08;;;;;;;2.72;1.27;;;;;;;22.63;40.21;100637.34;4196035;28;20044;-61
2022/10/19 00:05:09;;;;;;;1.38;1.20;;;;;;;22.76;40.13;100663.69;4196752;28;20049;-61
2022/10/19 00:07:11;;;;;;;2.90;0.90;;;;;;;22.73;40.07;100659.53;4197306;28;20483;-61
2022/10/19 00:09:15;;;;;;;2.13;1.45;;;;;;;22.76;39.93;100663.69;4197582;28;20093;-61
2022/10/19 00:11:17;;;;;;;2.28;1.05;;;;;;;22.77;40.17;100663.41;4197051;28;20044;-60
2022/10/19 00:13:20;;;;;;;1.33;0.88;;;;;;;22.79;40.29;100663.91;4197046;28;20094;-60
2022/10/19 00:15:22;;;;;;;2.03;0.90;;;;;;;22.79;40.20;100665.88;4197440;28;20074;-60
2022/10/19 00:17:23;;;;;;;1.83;0.85;;;;;;;22.79;39.98;100663.91;4197099;28;20480;-61
2022/10/19 00:19:26;;;;;;;2.28;1.15;;;;;;;22.78;40.12;100670.63;4196784;28;20106;-62
2022/10/19 00:21:29;;;;;;;1.98;1.08;;;;;;;22.78;40.23;100673.44;4197039;28;20036;-61
2022/10/19 00:23:30;;;;;;;1.20;1.08;;;;;;;22.77;40.22;100668.13;4197521;28;20044;-63
2022/10/19 00:25:31;;;;;;;2.35;0.90;;;;;;;22.77;40.13;100680.13;4197707;28;20044;-62
2022/10/19 00:27:33;;;;;;;1.52;1.10;;;;;;;22.76;39.92;100672.88;4197441;28;20044;-62
2022/10/19 00:29:37;;;;;;;1.15;0.90;;;;;;;22.65;40.01;100651.84;4197285;28;20044;-62
2022/10/19 00:31:39;;;;;;;1.42;0.93;;;;;;;22.76;40.17;100670.09;4197045;28;20048;-62
2022/10/19 00:33:41;;;;;;;2.20;0.80;;;;;;;22.76;40.10;100675.66;4197165;28;20049;-62
2022/10/19 00:35:43;;;;;;;2.20;0.88;;;;;;;22.76;39.83;100670.09;4196906;28;20041;-62
2022/10/19 00:37:44;;;;;;;3.40;1.00;;;;;;;22.77;39.77;100682.94;4197381;28;20021;-62
2022/10/19 00:39:45;;;;;;;1.17;0.90;;;;;;;22.75;39.99;100674.00;4195164;28;20048;-61
2022/10/19 00:41:47;;;;;;;1.40;1.15;;;;;;;22.76;39.93;100670.09;4189215;28;20106;-61
2022/10/19 00:43:58;;;;;;;1.02;0.90;;;;;;;22.75;39.88;100676.81;4188815;28;20045;-61
2022/10/19 00:46:00;;;;;;;1.67;0.82;;;;;;;22.75;40.26;100673.19;4180458;28;20029;-61
2022/10/19 00:48:01;;;;;;;1.00;0.90;;;;;;;22.70;39.81;100665.72;4187632;28;20033;-61
2022/10/19 00:50:03;;;;;;;1.65;1.00;;;;;;;22.73;39.83;100676.28;4198257;28;20052;-61
2022/10/19 00:52:12;;;;;;;24.15;2.05;;;;;;;22.63;40.11;100658.84;4198593;28;20082;-60
2022/10/19 00:54:17;;;;;;;3.70;1.02;;;;;;;22.75;39.98;100678.75;4183608;28;20045;-61
2022/10/19 00:56:19;;;;;;;2.60;1.00;;;;;;;22.74;39.85;100680.72;4183981;28;20044;-61
2022/10/19 00:58:20;;;;;;;2.25;1.10;;;;;;;22.75;39.69;100679.59;4199561;28;20044;-61
2022/10/19 01:00:21;;;;;;;3.22;1.00;;;;;;;22.62;39.87;100663.59;4200316;28;20090;-61
2022/10/19 01:02:23;;;;;;;2.85;1.02;;;;;;;22.69;40.20;100689.16;4200371;28;20090;-61
2022/10/19 01:04:26;;;;;;;3.17;0.90;;;;;;;22.14;40.09;100599.53;4200326;28;20094;-61
2022/10/19 01:06:27;;;;;;;3.90;1.25;;;;;;;22.48;40.00;100651.50;4199837;28;20468;-60
2022/10/19 01:08:29;;;;;;;4.45;0.80;;;;;;;22.70;40.09;100688.03;4199955;28;20360;-60
2022/10/19 01:10:49;;;;;;;2.92;1.00;;;;;;;22.73;40.14;100693.03;4199671;28;20044;-61
2022/10/19 01:13:06;;;;;;;4.70;0.90;;;;;;;22.76;39.76;100697.97;4202143;28;20098;-61
2022/10/19 01:15:20;;;;;;;1.45;0.95;;;;;;;22.79;40.07;100702.16;4187658;28;20418;-61
2022/10/19 01:18:02;;;;;;;3.53;1.00;;;;;;;22.77;39.84;100705.25;4192373;28;20036;-61
2022/10/19 01:20:22;;;;;;;2.08;1.17;;;;;;;22.81;40.09;100706.28;4198092;28;20114;-61
2022/10/19 01:22:49;;;;;;;1.08;0.90;;;;;;;22.80;39.85;100704.63;4199526;28;20173;-61
2022/10/19 01:25:08;;;;;;;4.07;1.15;;;;;;;22.80;39.96;100701.84;4199532;28;20040;-61
2022/10/19 01:27:31;;;;;;;2.25;0.80;;;;;;;22.83;39.84;100708.78;4199433;28;20093;-61
2022/10/19 01:29:56;;;;;;;2.15;1.20;;;;;;;22.83;40.13;100708.78;4199540;28;20094;-61
2022/10/19 01:32:04;;;;;;;2.58;1.00;;;;;;;22.83;39.95;100708.78;4192690;28;20044;-61
2022/10/19 01:34:26;;;;;;;3.83;1.15;;;;;;;22.83;40.03;100715.19;4200182;28;20090;-60
2022/10/19 01:36:28;;;;;;;2.45;1.02;;;;;;;22.84;39.74;100716.03;4199316;28;20045;-61
2022/10/19 01:38:53;;;;;;;2.05;1.00;;;;;;;22.74;40.13;100713.38;4199587;28;20033;-61
2022/10/19 01:41:17;;;;;;;2.72;1.25;;;;;;;22.82;39.89;100712.72;4199687;28;20048;-62
2022/10/19 01:43:35;;;;;;;2.90;1.23;;;;;;;22.79;39.82;100718.88;4199326;28;20045;-61
2022/10/19 01:46:01;;;;;;;1.77;1.08;;;;;;;22.79;39.71;100718.88;4198841;28;20064;-62
2022/10/19 01:48:16;;;;;;;2.20;1.20;;;;;;;22.82;40.02;100724.69;4199725;28;20024;-62
2022/10/19 01:50:29;;;;;;;3.27;1.00;;;;;;;22.84;40.02;100716.84;4199110;28;20041;-61
2022/10/19 01:52:38;;;;;;;2.08;1.23;;;;;;;22.83;39.90;100714.38;4215951;28;20140;-62
2022/10/19 01:54:45;;;;;;;1.30;1.05;;;;;;;22.82;40.07;100721.91;4215919;28;20036;-62
2022/10/19 01:56:48;;;;;;;2.28;1.10;;;;;;;22.82;39.97;100721.91;4216053;28;20101;-61
2022/10/19 01:58:51;;;;;;;1.70;1.00;;;;;;;22.83;39.99;100719.94;4210235;28;20041;-61
2022/10/19 02:00:56;;;;;;;1.30;1.20;;;;;;;22.82;39.72;100716.34;4197679;28;20454;-61
2022/10/19 02:02:59;;;;;;;4.95;1.05;;;;;;;22.81;39.90;100720.22;4197100;28;20094;-61
2022/10/19 02:05:03;;;;;;;5.93;1.48;;;;;;;22.82;39.76;100723.88;4196396;28;20114;-62
2022/10/19 02:07:06;;;;;;;6.00;1.50;;;;;;;22.81;40.02;100725.81;4193938;28;20037;-61
2022/10/19 02:09:07;;;;;;;1.73;1.10;;;;;;;22.80;40.20;100726.94;4183046;28;20411;-62
2022/10/19 02:11:08;;;;;;;1.75;1.13;;;;;;;22.81;39.82;100736.13;4190434;28;20149;-60
2022/10/19 02:13:12;;;;;;;2.20;1.33;;;;;;;22.58;39.97;100696.81;4193095;28;20066;-60
2022/10/19 02:15:20;;;;;;;1.90;1.02;;;;;;;22.80;40.08;100738.09;4190491;28;20033;-61
2022/10/19 02:17:29;;;;;;;1.88;1.10;;;;;;;22.80;39.93;100742.84;4182237;28;20090;-60
2022/10/19 02:19:30;;;;;;;5.70;1.58;;;;;;;22.81;39.95;100739.75;4191076;28;20044;-61
2022/10/19 02:21:32;;;;;;;4.20;1.20;;;;;;;22.81;39.90;100734.19;4189592;28;20373;-60
2022/10/19 02:23:33;;;;;;;3.72;1.50;;;;;;;22.80;40.10;100738.09;4191181;28;20044;-62
2022/10/19 02:25:38;;;;;;;1.55;1.23;;;;;;;22.70;40.12;100718.72;4189037;28;20050;-62
2022/10/19 02:27:43;;;;;;;;;;;;;;;22.79;39.84;100744.81;4184682;28;20098;-62
2022/10/19 02:29:44;;;;;;;2.47;1.17;;;;;;;22.76;39.75;100723.09;4189271;28;20361;-61
2022/10/19 02:31:45;;;;;;;3.70;1.23;;;;;;;22.81;39.94;100736.97;4191034;28;20048;-61
2022/10/19 02:33:47;;;;;;;4.78;1.48;;;;;;;22.81;39.96;100728.59;4195700;28;20048;-61
2022/10/19 02:35:48;;;;;;;1.60;1.15;;;;;;;22.81;39.80;100734.19;4196315;28;20057;-61
2022/10/19 02:37:50;;;;;;;2.58;1.02;;;;;;;22.78;39.80;100728.38;4192046;28;20149;-61
2022/10/19 02:39:54;;;;;;;2.65;1.40;;;;;;;22.82;40.03;100740.63;4191463;28;20098;-61
2022/10/19 02:42:06;;;;;;;3.75;1.20;;;;;;;22.58;39.83;100705.19;4188453;28;20107;-61
2022/10/19 02:44:33;;;;;;;4.03;1.30;;;;;;;22.78;39.84;100745.97;4188705;28;20110;-62
2022/10/19 02:46:41;;;;;;;1.45;1.20;;;;;;;22.78;39.74;100734.78;4194438;28;20145;-62
2022/10/19 02:48:46;;;;;;;2.60;1.30;;;;;;;22.71;39.96;100727.91;4195337;28;20040;-62
2022/10/19 02:50:47;;;;;;;5.47;1.40;;;;;;;22.81;39.86;100750.91;4192107;28;20136;-62
2022/10/19 02:52:48;;;;;;;1.25;1.05;;;;;;;22.79;39.92;100747.59;4185691;28;20086;-62
2022/10/19 02:54:49;;;;;;;1.73;1.10;;;;;;;22.78;39.87;100753.50;4196320;28;20040;-61
2022/10/19 02:56:51;;;;;;;3.28;1.42;;;;;;;22.62;40.00;100735.28;4197947;28;20090;-62
2022/10/19 02:58:55;;;;;;;2.05;1.52;;;;;;;22.73;40.05;100754.38;4198334;28;20105;-62
2022/10/19 03:00:56;;;;;;;1.50;1.15;;;;;;;22.80;40.00;100766.00;4196793;28;20094;-60
2022/10/19 03:02:57;;;;;;;3.78;1.33;;;;;;;22.80;39.97;100770.75;4197817;28;20481;-62
2022/10/19 03:04:58;;;;;;;3.53;1.00;;;;;;;22.79;40.14;100767.13;4194545;28;20048;-61
2022/10/19 03:07:02;;;;;;;2.00;1.23;;;;;;;22.80;39.81;100771.56;4197698;28;20449;-61
2022/10/19 03:09:04;;;;;;;1.65;1.27;;;;;;;22.81;39.63;100772.41;4197722;28;20082;-61
2022/10/19 03:11:05;;;;;;;1.45;1.30;;;;;;;22.81;39.66;100773.22;4196135;28;20045;-63
2022/10/19 03:13:06;;;;;;;1.77;1.27;;;;;;;22.70;39.65;100760.56;4197602;28;20036;-61
2022/10/19 03:15:15;;;;;;;1.90;1.15;;;;;;;22.80;39.80;100771.56;4197583;28;20090;-63
2022/10/19 03:17:16;;;;;;;2.40;1.15;;;;;;;22.81;39.71;100773.22;4198330;28;20033;-61
2022/10/19 03:19:18;;;;;;;1.65;1.20;;;;;;;22.81;39.87;100773.22;4197460;28;20595;-61
2022/10/19 03:21:19;;;;;;;1.20;1.10;;;;;;;22.73;39.75;100771.13;4197774;28;20048;-61
2022/10/19 03:23:20;;;;;;;2.50;1.20;;;;;;;22.68;40.11;100754.44;4197957;28;20049;-61
2022/10/19 03:25:22;;;;;;;1.73;1.27;;;;;;;22.80;40.21;100782.75;4197422;28;20070;-63
2022/10/19 03:27:26;;;;;;;2.70;1.15;;;;;;;22.11;39.67;100666.97;4197772;28;20095;-63
2022/10/19 03:29:27;;;;;;;4.50;1.60;;;;;;;22.81;39.89;100783.56;4197676;28;20074;-61
2022/10/19 03:31:28;;;;;;;1.52;1.23;;;;;;;22.82;39.89;100779.66;4197370;28;20048;-62
2022/10/19 03:33:30;;;;;;;1.58;1.15;;;;;;;22.81;39.84;100778.81;4205924;28;20360;-63
2022/10/19 03:35:31;;;;;;;1.52;1.17;;;;;;;22.80;39.95;100787.50;4214507;28;20032;-63
2022/10/19 03:37:35;;;;;;;2.47;1.02;;;;;;;22.63;39.84;100751.69;4213225;28;20097;-63
2022/10/19 03:39:36;;;;;;;1.80;1.23;;;;;;;22.80;39.91;100779.94;4214712;28;20097;-62
2022/10/19 03:41:37;;;;;;;1.63;1.40;;;;;;;22.82;39.52;100774.91;4214421;28;20036;-62
2022/10/19 03:43:40;;;;;;;2.25;1.48;;;;;;;22.81;39.62;100784.41;4214603;28;20040;-62
2022/10/19 03:45:45;;;;;;;2.53;1.48;;;;;;;22.80;39.71;100791.09;4214222;28;20105;-61
2022/10/19 03:47:50;;;;;;;2.83;1.23;;;;;;;22.79;39.73;100795.03;4213139;28;20453;-63
2022/10/19 03:49:51;;;;;;;1.70;1.40;;;;;;;22.81;39.61;100801.13;4197233;28;20487;-62
2022/10/19 03:51:52;;;;;;;2.60;1.58;;;;;;;22.77;39.67;100799.22;4197704;28;20032;-62
2022/10/19 03:53:59;;;;;;;2.35;1.50;;;;;;;22.80;39.76;100805.06;4196128;28;20040;-62
2022/10/19 03:56:13;;;;;;;2.55;1.30;;;;;;;22.79;39.76;100795.03;4197550;28;20024;-62
2022/10/19 03:58:14;;;;;;;1.85;1.30;;;;;;;22.81;39.88;100809.50;4197565;28;20113;-62
2022/10/19 04:00:16;;;;;;;3.33;1.38;;;;;;;22.80;39.46;100807.03;4197335;28;20445;-62
2022/10/19 04:02:17;;;;;;;1.77;1.30;;;;;;;22.80;39.38;100809.81;4197251;28;20037;-62
2022/10/19 04:04:21;;;;;;;1.63;1.50;;;;;;;22.79;39.70;100814.56;4197378;28;20037;-62
2022/10/19 04:06:28;;;;;;;2.85;1.25;;;;;;;22.78;39.80;100817.66;4196727;28;20033;-62
2022/10/19 04:08:30;;;;;;;3.28;1.33;;;;;;;22.79;39.77;100814.56;4197348;28;20109;-62
2022/10/19 04:10:34;;;;;;;2.42;1.20;;;;;;;22.79;39.61;100822.94;4197637;28;20028;-62
2022/10/19 04:12:35;;;;;;;3.08;1.17;;;;;;;22.78;39.66;100815.69;4197615;28;20090;-62
2022/10/19 04:14:37;;;;;;;2.33;1.58;;;;;;;22.80;39.71;100815.38;4197473;28;20063;-62
2022/10/19 04:16:38;;;;;;;2.05;1.25;;;;;;;22.78;39.51;100818.50;4196243;28;20036;-62
2022/10/19 04:18:43;;;;;;;1.77;1.45;;;;;;;22.77;39.64;100811.25;4197504;28;20437;-62
2022/10/19 04:20:44;;;;;;;2.28;1.40;;;;;;;22.77;39.56;100815.97;4197532;28;20367;-62
2022/10/19 04:22:48;;;;;;;2.10;1.40;;;;;;;22.74;39.31;100816.59;4197402;28;20040;-61
2022/10/19 04:24:49;;;;;;;1.88;1.38;;;;;;;22.78;39.33;100818.50;4208639;28;20043;-62
2022/10/19 04:26:55;;;;;;;2.00;1.33;;;;;;;22.78;39.33;100828.81;4201522;28;20364;-62
2022/10/19 04:29:00;;;;;;;1.60;1.17;;;;;;;22.77;39.70;100822.41;4200768;28;20091;-62
2022/10/19 04:31:03;;;;;;;1.85;1.33;;;;;;;22.77;39.67;100825.19;4200470;28;20483;-62
2022/10/19 04:33:05;;;;;;;2.33;1.35;;;;;;;22.58;39.65;100796.38;4200707;28;20128;-62
2022/10/19 04:35:09;;;;;;;2.40;1.70;;;;;;;22.76;39.39;100826.31;4200485;28;20079;-62
2022/10/19 04:37:11;;;;;;;2.45;1.52;;;;;;;22.76;39.39;100820.72;4199929;28;20048;-62
2022/10/19 04:39:12;;;;;;;2.58;1.33;;;;;;;22.75;39.54;100810.69;4200381;28;20044;-63
2022/10/19 04:41:16;;;;;;;2.17;1.25;;;;;;;22.76;39.52;100815.16;4200749;28;20106;-62
2022/10/19 04:43:17;;;;;;;1.90;1.20;;;;;;;22.76;39.56;100826.31;4200367;28;20114;-62
2022/10/19 04:45:24;;;;;;;1.80;1.38;;;;;;;22.75;39.39;100819.06;4200169;28;20040;-62
2022/10/19 04:47:27;;;;;;;1.70;1.30;;;;;;;22.75;39.26;100810.69;4200297;28;20040;-62
2022/10/19 04:49:34;;;;;;;1.67;1.40;;;;;;;22.75;39.31;100812.66;4200405;28;20102;-62
2022/10/19 04:51:35;;;;;;;1.70;1.20;;;;;;;22.75;39.64;100816.28;4200464;28;20029;-62
2022/10/19 04:53:38;;;;;;;1.98;1.20;;;;;;;22.54;39.30;100790.59;4199510;28;20037;-62
2022/10/19 04:55:42;;;;;;;2.35;1.10;;;;;;;22.74;39.32;100817.41;4200022;28;20037;-61
2022/10/19 04:57:46;;;;;;;1.30;1.00;;;;;;;22.74;39.47;100820.19;4201647;28;20437;-62
2022/10/19 04:59:47;;;;;;;2.95;1.35;;;;;;;22.74;39.22;100816.59;4216609;28;20044;-62
2022/10/19 05:01:48;;;;;;;1.45;1.30;;;;;;;22.74;39.26;100820.19;4217165;28;20027;-62
2022/10/19 05:03:54;;;;;;;1.85;1.45;;;;;;;22.72;39.41;100819.66;4217076;28;20082;-62
2022/10/19 05:05:58;;;;;;;3.00;1.35;;;;;;;22.69;39.64;100813.84;4216327;28;20040;-62
2022/10/19 05:08:03;;;;;;;3.03;1.20;;;;;;;22.71;39.31;100815.22;4216900;28;20101;-62
2022/10/19 05:10:07;;;;;;;2.03;1.20;;;;;;;22.53;39.41;100799.22;4211782;28;20089;-62
2022/10/19 05:12:08;;;;;;;1.77;1.37;;;;;;;22.72;39.18;100825.22;4199957;28;20044;-62
2022/10/19 05:14:10;;;;;;;1.70;1.20;;;;;;;22.73;39.40;100826.09;4199753;28;20094;-62
2022/10/19 05:16:17;;;;;;;1.75;1.63;;;;;;;22.57;39.18;100800.31;4200366;28;20037;-62
2022/10/19 05:18:19;;;;;;;1.67;1.20;;;;;;;22.68;39.59;100818.59;4199964;28;20102;-62
2022/10/19 05:20:20;;;;;;;1.20;1.10;;;;;;;22.59;39.36;100809.22;4200246;28;20165;-62
2022/10/19 05:22:22;;;;;;;2.20;1.20;;;;;;;22.67;39.09;100821.66;4199929;28;20044;-62
2022/10/19 05:24:23;;;;;;;2.25;1.30;;;;;;;22.63;39.48;100821.44;4199836;28;20096;-61
2022/10/19 05:26:26;;;;;;;2.25;1.48;;;;;;;22.69;39.59;100828.63;4199145;28;20094;-62
2022/10/19 05:28:28;;;;;;;2.40;1.30;;;;;;;22.69;39.49;100834.22;4199072;28;20564;-62
2022/10/19 05:30:29;;;;;;;1.90;1.20;;;;;;;22.70;39.24;100835.88;4198892;28;20548;-62
2022/10/19 05:32:30;;;;;;;2.92;1.48;;;;;;;22.69;39.41;100830.59;4190936;28;20037;-62
2022/10/19 05:34:34;;;;;;;2.40;1.20;;;;;;;22.68;39.54;100823.31;4198384;28;20101;-62
2022/10/19 05:36:38;;;;;;;1.23;1.08;;;;;;;22.68;39.55;100832.56;4198843;28;20430;-62
2022/10/19 05:38:40;;;;;;;2.17;1.40;;;;;;;22.68;39.05;100835.34;4198674;28;20041;-62
2022/10/19 05:40:45;;;;;;;1.17;1.00;;;;;;;22.68;39.16;100834.47;4199456;28;20040;-62
2022/10/19 05:42:46;;;;;;;1.30;1.20;;;;;;;22.68;39.43;100840.91;4199811;28;20037;-62
2022/10/19 05:44:47;;;;;;;1.45;1.15;;;;;;;22.54;39.37;100824.06;4199125;28;20041;-62
2022/10/19 05:46:50;;;;;;;1.98;1.60;;;;;;;22.66;39.08;100843.16;4199326;28;20093;-62
2022/10/19 05:48:53;;;;;;;1.75;1.33;;;;;;;22.52;39.37;100819.88;4199622;28;20040;-62
2022/10/19 05:50:55;;;;;;;2.08;1.33;;;;;;;22.66;39.25;100847.91;4182751;28;20045;-62
2022/10/19 05:52:57;;;;;;;1.35;1.20;;;;;;;22.65;39.44;100847.09;4182915;28;20044;-62
2022/10/19 05:55:01;;;;;;;1.90;1.40;;;;;;;22.64;39.22;100845.44;4182670;28;20447;-62
2022/10/19 05:57:05;;;;;;;1.60;1.20;;;;;;;22.43;39.41;100827.22;4182569;28;20037;-62
2022/10/19 05:59:15;;;;;;;1.75;1.40;;;;;;;22.65;39.17;100855.44;4182441;28;20094;-62
2022/10/19 06:01:18;;;;;;;1.67;1.40;;;;;;;22.65;39.10;100849.88;4182745;28;20484;-62
2022/10/19 06:03:23;;;;;;;1.60;1.27;;;;;;;22.65;39.10;100854.63;4182723;28;20118;-62
2022/10/19 06:05:24;;;;;;;1.67;1.30;;;;;;;22.65;39.25;100854.63;4182370;28;20045;-62
2022/10/19 06:07:25;;;;;;;1.63;1.30;;;;;;;22.62;39.56;100853.25;4215168;28;20044;-62
2022/10/19 06:09:34;;;;;;;1.60;1.27;;;;;;;22.64;39.45;100862.16;4215662;28;20093;-62
2022/10/19 06:11:41;;;;;;;2.03;1.15;;;;;;;22.60;39.07;100849.94;4215487;28;20047;-62
2022/10/19 06:13:49;;;;;;;1.60;1.40;;;;;;;22.63;39.40;100866.06;4211756;28;20040;-62
2022/10/19 06:15:51;;;;;;;2.45;1.35;;;;;;;22.64;39.26;100862.16;4198576;28;20040;-62
2022/10/19 06:17:52;;;;;;;2.00;1.20;;;;;;;22.63;39.36;100859.66;4198817;28;20048;-62
2022/10/19 06:19:53;;;;;;;1.73;1.30;;;;;;;22.64;38.94;100862.16;4198640;28;20086;-62
2022/10/19 06:21:54;;;;;;;1.50;1.20;;;;;;;22.63;39.08;100859.66;4198689;28;20040;-62
2022/10/19 06:24:01;;;;;;;2.85;1.45;;;;;;;22.62;39.40;100858.81;4199324;28;20041;-62
2022/10/19 06:26:10;;;;;;;1.58;1.00;;;;;;;22.51;39.30;100837.75;4198647;28;20041;-62
2022/10/19 06:28:12;;;;;;;1.55;1.20;;;;;;;22.61;39.11;100857.16;4198901;28;20044;-62
2022/10/19 06:30:16;;;;;;;1.40;1.10;;;;;;;22.58;39.18;100852.16;4198924;28;20067;-62
2022/10/19 06:32:17;;;;;;;1.88;1.35;;;;;;;22.61;39.05;100868.31;4198695;28;20494;-62
2022/10/19 06:34:19;;;;;;;1.40;1.30;;;;;;;22.61;38.98;100861.91;4198558;28;20040;-62
2022/10/19 06:36:23;;;;;;;1.60;1.30;;;;;;;22.60;39.06;100866.66;4197682;28;20110;-62
2022/10/19 06:38:26;;;;;;;1.60;1.30;;;;;;;22.60;39.35;100860.25;4198446;28;20497;-62
2022/10/19 06:40:28;;;;;;;2.22;1.67;;;;;;;22.60;39.20;100861.09;4206050;28;20040;-62
2022/10/19 06:42:29;;;;;;;1.52;1.30;;;;;;;22.59;39.26;100859.44;4215525;28;20052;-62
2022/10/19 06:44:33;;;;;;;1.48;1.20;;;;;;;22.60;38.92;100869.44;4214795;28;20483;-62
2022/10/19 06:46:34;;;;;;;1.63;1.33;;;;;;;22.60;39.33;100863.03;4215039;28;20439;-62
2022/10/19 06:48:36;;;;;;;1.38;1.27;;;;;;;22.57;39.14;100861.66;4214536;28;20109;-63
2022/10/19 06:50:37;;;;;;;2.38;1.40;;;;;;;22.59;39.23;100870.59;4214956;28;20039;-63
2022/10/19 06:52:39;;;;;;;1.40;1.20;;;;;;;22.57;38.94;100868.06;4215121;28;20098;-62
2022/10/19 06:54:41;;;;;;;1.80;1.27;;;;;;;22.57;39.30;100876.44;4215161;28;20028;-63
2022/10/19 06:56:42;;;;;;;1.95;1.60;;;;;;;22.56;39.24;100868.38;4208549;28;20176;-62
2022/10/19 06:58:46;;;;;;;1.60;1.20;;;;;;;22.35;39.13;100839.00;4215235;28;20097;-62
2022/10/19 07:00:55;;;;;;;3.27;1.10;;;;;;;22.56;39.51;100876.75;4211754;28;20040;-62
2022/10/19 07:03:00;;;;;;;1.92;1.48;;;;;;;22.56;39.30;100871.16;4196997;28;20441;-62
2022/10/19 07:05:01;;;;;;;1.43;1.10;;;;;;;22.54;39.21;100868.69;4197365;28;20070;-62
2022/10/19 07:07:14;;;;;;;1.67;1.17;;;;;;;22.56;39.09;100871.16;4198712;28;20362;-62
2022/10/19 07:09:17;;;;;;;2.08;1.35;;;;;;;22.57;39.04;100867.25;4197568;28;20048;-62
2022/10/19 07:11:21;;;;;;;1.77;1.10;;;;;;;22.56;39.29;100876.75;4198187;28;20102;-61
2022/10/19 07:13:22;;;;;;;1.48;1.20;;;;;;;22.56;39.15;100868.38;4194491;28;20453;-61
2022/10/19 07:15:24;;;;;;;1.45;1.10;;;;;;;22.53;38.85;100868.94;4196540;28;20553;-61
2022/10/19 07:17:25;;;;;;;1.73;1.25;;;;;;;22.55;39.22;100873.13;4197641;28;20032;-60
2022/10/19 07:19:26;;;;;;;2.10;1.30;;;;;;;22.55;39.17;100864.75;4196891;28;20101;-61
2022/10/19 07:21:28;;;;;;;1.25;1.10;;;;;;;22.55;39.23;100875.91;4197355;28;20072;-61
2022/10/19 07:23:33;;;;;;;1.75;1.23;;;;;;;22.55;39.08;100869.50;4196311;28;20049;-61
2022/10/19 07:25:44;;;;;;;1.25;1.10;;;;;;;22.52;39.27;100870.91;4197042;28;20044;-60
2022/10/19 07:27:48;;;;;;;1.80;1.40;;;;;;;22.54;38.92;100856.66;4197002;28;20094;-61
2022/10/19 07:29:49;;;;;;;1.23;1.10;;;;;;;22.55;39.01;100861.13;4196955;28;20181;-61
2022/10/19 07:31:51;;;;;;;1.63;1.17;;;;;;;22.54;39.15;100868.69;4196724;28;20045;-61
2022/10/19 07:33:57;;;;;;;1.98;1.27;;;;;;;22.53;38.86;100866.16;4196134;28;20048;-61
2022/10/19 07:36:03;;;;;;;1.33;1.08;;;;;;;22.32;39.03;100838.47;4196593;28;20677;-61
2022/10/19 07:38:05;;;;;;;2.17;1.17;;;;;;;22.52;39.25;100873.69;4197341;28;20041;-61
2022/10/19 07:40:10;;;;;;;1.75;1.20;;;;;;;22.49;39.20;100865.91;4198297;28;20033;-61
2022/10/19 07:42:11;;;;;;;;;;;;;;;22.51;39.23;100869.25;4197199;28;20515;-62
2022/10/19 07:44:13;;;;;;;2.17;1.20;;;;;;;22.55;38.92;100869.50;4196951;28;20408;-61
2022/10/19 07:46:19;;;;;;;1.52;1.20;;;;;;;22.56;39.09;100871.16;4196499;28;20049;-61
2022/10/19 07:48:20;;;;;;;2.08;1.30;;;;;;;22.55;38.86;100863.94;4196681;28;20098;-61
2022/10/19 07:50:23;;;;;;;1.92;1.33;;;;;;;22.54;39.07;100867.81;4197723;28;20032;-61
2022/10/19 07:52:24;;;;;;;1.30;1.17;;;;;;;22.51;39.13;100868.41;4197407;28;20480;-60
2022/10/19 07:54:26;;;;;;;1.00;0.90;;;;;;;22.51;38.90;100862.84;4197502;28;20456;-61
2022/10/19 07:56:28;;;;;;;1.63;1.20;;;;;;;22.50;38.94;100861.19;4195521;28;20028;-61
2022/10/19 07:58:30;;;;;;;1.30;1.10;;;;;;;22.21;39.10;100814.59;4196588;28;20041;-61
2022/10/19 08:00:32;;;;;;;1.25;1.13;;;;;;;22.48;38.92;100858.66;4196884;28;20038;-61
2022/10/19 08:02:33;;;;;;;2.42;1.40;;;;;;;22.48;39.04;100857.84;4197624;28;20040;-61
2022/10/19 08:04:38;;;;;;;1.48;1.13;;;;;;;22.48;38.95;100860.63;4196350;28;20032;-61
2022/10/19 08:06:39;;;;;;;1.08;0.98;;;;;;;22.15;38.95;100806.59;4197578;28;20090;-61
2022/10/19 08:08:48;;;;;;;1.23;1.02;;;;;;;22.25;38.97;100837.97;4197147;28;20044;-61
2022/10/19 08:10:52;;;;;;;1.65;1.20;;;;;;;22.41;38.85;100849.84;4197446;28;20040;-61
2022/10/19 08:12:56;;;;;;;1.30;1.00;;;;;;;22.37;38.98;100850.72;4193539;28;20450;-61
2022/10/19 08:15:00;;;;;;;1.70;1.10;;;;;;;22.47;38.81;100864.56;4190252;28;20086;-61
2022/10/19 08:17:04;;;;;;;1.48;1.00;;;;;;;22.45;39.00;100858.41;4197040;28;20040;-61
2022/10/19 08:19:14;;;;;;;1.77;1.40;;;;;;;22.43;38.64;100860.69;4197440;28;20557;-61
2022/10/19 08:21:15;;;;;;;2.03;1.20;;;;;;;22.48;39.04;100869.00;4196158;28;20028;-61
2022/10/19 08:23:16;;;;;;;1.83;1.13;;;;;;;22.47;39.18;100867.34;4196707;28;20109;-61
2022/10/19 08:25:20;;;;;;;1.25;0.82;;;;;;;22.46;38.91;100865.69;4196239;28;20052;-61
2022/10/19 08:27:25;;;;;;;1.17;1.00;;;;;;;22.45;38.88;100861.22;4180835;28;20102;-61
2022/10/19 08:29:26;;;;;;;1.35;0.93;;;;;;;22.45;38.77;100864.00;4180688;28;20106;-61
2022/10/19 08:31:31;;;;;;;1.52;1.20;;;;;;;22.45;39.14;100858.41;4180597;28;20056;-61
2022/10/19 08:33:32;;;;;;;1.42;1.17;;;;;;;22.43;38.89;100861.50;4180920;28;20025;-61
2022/10/19 08:35:34;;;;;;;2.28;1.30;;;;;;;22.37;39.00;100850.72;4180466;28;20094;-61
2022/10/19 08:37:35;;;;;;;1.52;1.15;;;;;;;22.44;38.96;100862.34;4180613;28;20041;-61
2022/10/19 08:39:37;;;;;;;1.85;1.17;;;;;;;22.44;39.07;100859.56;4191564;28;20036;-63
2022/10/19 08:41:56;;;;;;;1.50;1.00;;;;;;;22.41;38.76;100860.16;4197005;28;20110;-64
2022/10/19 08:44:35;;;;;;;1.23;1.10;;;;;;;22.41;38.77;100874.09;4196634;28;20098;-61
2022/10/19 08:46:54;;;;;;;1.42;1.00;;;;;;;22.43;38.87;100866.25;4197356;28;20036;-61
2022/10/19 08:48:55;;;;;;;0.98;0.93;;;;;;;22.38;38.71;100860.75;4197323;28;20028;-61
2022/10/19 08:50:58;;;;;;;1.20;1.10;;;;;;;22.37;39.08;100859.91;4196615;28;20070;-61
2022/10/19 08:53:02;;;;;;;1.88;1.20;;;;;;;22.42;38.77;100872.97;4196804;28;20090;-61
2022/10/19 08:55:12;;;;;;;1.27;1.17;;;;;;;22.40;39.11;100866.84;4189988;28;20098;-61
2022/10/19 08:57:41;;;;;;;2.13;1.52;;;;;;;22.38;39.02;100874.69;4211783;28;20117;-61
2022/10/19 08:59:52;;;;;;;1.25;1.00;;;;;;;22.39;38.77;100871.59;4213666;28;20112;-61
2022/10/19 09:02:03;;;;;;;1.25;1.13;;;;;;;22.40;38.89;100870.44;4213918;28;20032;-61
2022/10/19 09:04:10;;;;;;;1.52;1.20;;;;;;;22.40;39.03;100872.41;4213908;28;20089;-61
2022/10/19 09:06:43;;;;;;;1.10;1.00;;;;;;;22.10;38.97;100829.72;4213580;28;20040;-61
2022/10/19 09:08:45;;;;;;;1.23;1.10;;;;;;;22.39;38.60;100879.13;4213769;28;20105;-61
2022/10/19 09:10:50;;;;;;;0.95;0.85;;;;;;;22.38;39.05;100880.25;4213807;28;20040;-61
2022/10/19 09:12:59;;;;;;;0.95;0.90;;;;;;;22.39;38.97;100887.47;4215931;28;20105;-61
2022/10/19 09:15:05;;;;;;;1.58;0.88;;;;;;;22.38;39.04;100885.81;4216506;28;20044;-61
2022/10/19 09:17:13;;;;;;;1.40;1.13;;;;;;;22.37;39.08;100889.75;4216393;28;20036;-62
2022/10/19 09:19:28;;;;;;;1.20;1.10;;;;;;;22.24;38.73;100869.78;4206554;28;20040;-62
2022/10/19 09:21:47;;;;;;;;;;;;;;;22.35;38.76;100891.97;4200506;28;20049;-61
2022/10/19 09:24:04;;;;;;;1.67;1.10;;;;;;;22.41;38.46;100886.09;4199942;28;20329;-61
2022/10/19 09:26:18;;;;;;;1.05;0.90;;;;;;;22.38;38.90;100883.03;4198665;28;20380;-63
2022/10/19 09:28:25;;;;;;;1.25;0.93;;;;;;;22.39;38.59;100887.47;4199358;28;20029;-61
2022/10/19 09:30:33;;;;;;;1.55;1.20;;;;;;;22.37;38.59;100887.78;4197553;28;20048;-61
2022/10/19 09:32:37;;;;;;;1.38;0.90;;;;;;;22.32;38.74;100887.84;4193790;28;20383;-61
2022/10/19 09:34:48;;;;;;;1.15;0.80;;;;;;;22.35;38.86;100891.97;4197371;28;20040;-61
2022/10/19 09:36:55;;;;;;;1.13;0.90;;;;;;;22.35;38.89;100891.97;4199458;28;20041;-61
2022/10/19 09:38:57;;;;;;;1.27;0.90;;;;;;;22.35;38.91;100897.56;4198444;28;20091;-61
2022/10/19 09:41:23;;;;;;;1.00;0.90;;;;;;;22.32;38.81;100905.38;4199310;28;20052;-61
2022/10/19 09:43:30;;;;;;;;;;;;;;;22.31;38.63;100897.28;4199745;28;20440;-60